createdAt,value
2017-09-02T00:00:25.136Z,0
2017-09-02T00:01:25.156Z,0
2017-09-02T00:02:25.172Z,0
2017-09-02T00:03:25.197Z,0
2017-09-02T00:04:25.225Z,0
2017-09-02T00:05:25.564Z,0
2017-09-02T00:06:25.321Z,0
2017-09-02T00:07:25.602Z,0
2017-09-02T00:08:25.618Z,0
2017-09-02T00:09:25.628Z,0
2017-09-02T00:10:25.352Z,0
2017-09-02T00:11:25.680Z,0
2017-09-02T00:12:25.395Z,0
2017-09-02T00:13:25.434Z,0
2017-09-02T00:14:25.444Z,0
2017-09-02T00:15:25.452Z,0
2017-09-02T00:16:25.490Z,0
2017-09-02T00:17:25.806Z,0
2017-09-02T00:18:25.519Z,0
2017-09-02T00:19:25.553Z,0
2017-09-02T00:20:25.562Z,0
2017-09-02T00:21:25.590Z,0
2017-09-02T00:22:25.607Z,0
2017-09-02T00:23:25.635Z,0
2017-09-02T00:24:25.658Z,0
2017-09-02T00:25:25.676Z,0
2017-09-02T00:26:25.700Z,0
2017-09-02T00:27:26.033Z,0
2017-09-02T00:28:25.743Z,0
2017-09-02T00:29:25.768Z,0
2017-09-02T00:30:25.787Z,0
2017-09-02T00:31:25.826Z,0
2017-09-02T00:32:25.827Z,0
2017-09-02T00:33:25.855Z,0
2017-09-02T00:34:25.877Z,0
2017-09-02T00:35:25.892Z,0
2017-09-02T00:36:25.918Z,0
2017-09-02T00:37:25.961Z,0
2017-09-02T00:38:25.964Z,0
2017-09-02T00:39:25.981Z,0
2017-09-02T00:40:26.005Z,0
2017-09-02T00:41:26.348Z,0
2017-09-02T00:42:26.052Z,0
2017-09-02T00:43:26.068Z,0
2017-09-02T00:44:26.090Z,0
2017-09-02T00:45:26.117Z,0
2017-09-02T00:46:26.139Z,0
2017-09-02T00:47:26.160Z,0
2017-09-02T00:48:26.186Z,0
2017-09-02T00:49:26.207Z,0
2017-09-02T00:50:26.217Z,0
2017-09-02T00:51:26.252Z,0
2017-09-02T00:52:26.269Z,0
2017-09-02T00:53:26.302Z,0
2017-09-02T00:54:26.334Z,0
2017-09-02T00:55:26.336Z,0
2017-09-02T00:56:26.985Z,0
2017-09-02T00:57:26.374Z,0
2017-09-02T00:58:26.395Z,0
2017-09-02T00:59:26.422Z,0
2017-09-02T01:00:26.442Z,0
2017-09-02T01:01:26.469Z,0
2017-09-02T01:02:26.789Z,0
2017-09-02T01:03:26.501Z,0
2017-09-02T01:04:26.527Z,0
2017-09-02T01:05:26.563Z,0
2017-09-02T01:06:26.565Z,0
2017-09-02T01:07:26.591Z,0
2017-09-02T01:08:26.607Z,0
2017-09-02T01:09:26.629Z,0
2017-09-02T01:10:26.668Z,0
2017-09-02T01:11:26.987Z,0
2017-09-02T01:12:26.698Z,0
2017-09-02T01:13:26.727Z,0
2017-09-02T01:14:27.066Z,0
2017-09-02T01:15:26.766Z,0
2017-09-02T01:16:27.099Z,0
2017-09-02T01:17:27.143Z,0
2017-09-02T01:18:26.832Z,0
2017-09-02T01:19:27.159Z,0
2017-09-02T01:20:26.872Z,0
2017-09-02T01:21:26.892Z,0
2017-09-02T01:22:26.911Z,0
2017-09-02T01:23:27.248Z,0
2017-09-02T01:24:26.961Z,0
2017-09-02T01:25:26.990Z,0
2017-09-02T01:26:27.011Z,0
2017-09-02T01:27:27.074Z,0
2017-09-02T01:28:27.049Z,0
2017-09-02T01:29:27.065Z,0
2017-09-02T01:30:27.181Z,0
2017-09-02T01:31:27.100Z,0
2017-09-02T01:32:27.179Z,0
2017-09-02T01:33:27.457Z,0
2017-09-02T01:34:27.491Z,0
2017-09-02T01:35:27.195Z,0
2017-09-02T01:36:27.214Z,0
2017-09-02T01:37:27.231Z,0
2017-09-02T01:38:27.255Z,0
2017-09-02T01:39:27.300Z,0
2017-09-02T01:40:27.300Z,0
2017-09-02T01:41:27.318Z,0
2017-09-02T01:42:27.701Z,0
2017-09-02T01:43:27.692Z,0
2017-09-02T01:44:27.380Z,0
2017-09-02T01:45:27.718Z,0
2017-09-02T01:46:27.421Z,0
2017-09-02T01:47:27.441Z,0
2017-09-02T01:48:27.772Z,0
2017-09-02T01:49:27.481Z,0
2017-09-02T01:50:27.821Z,0
2017-09-02T01:51:27.533Z,0
2017-09-02T01:52:27.867Z,0
2017-09-02T01:53:27.570Z,0
2017-09-02T01:54:27.589Z,0
2017-09-02T01:55:27.626Z,0
2017-09-02T01:56:27.957Z,0
2017-09-02T01:57:27.707Z,0
2017-09-02T01:58:27.674Z,0
2017-09-02T01:59:27.702Z,0
2017-09-02T02:00:27.717Z,0
2017-09-02T02:01:27.752Z,0
2017-09-02T02:02:27.773Z,0
2017-09-02T02:03:27.781Z,0
2017-09-02T02:04:28.118Z,0
2017-09-02T02:05:28.147Z,0
2017-09-02T02:06:27.851Z,0
2017-09-02T02:07:27.869Z,0
2017-09-02T02:08:27.888Z,0
2017-09-02T02:09:27.908Z,0
2017-09-02T02:10:27.937Z,0
2017-09-02T02:11:27.954Z,0
2017-09-02T02:12:27.972Z,0
2017-09-02T02:13:27.991Z,0
2017-09-02T02:14:28.069Z,0
2017-09-02T02:15:28.048Z,0
2017-09-02T02:16:28.059Z,0
2017-09-02T02:17:28.081Z,0
2017-09-02T02:18:28.414Z,0
2017-09-02T02:19:28.124Z,0
2017-09-02T02:20:28.138Z,0
2017-09-02T02:21:28.174Z,0
2017-09-02T02:22:28.506Z,0
2017-09-02T02:23:28.206Z,0
2017-09-02T02:24:28.227Z,0
2017-09-02T02:25:28.252Z,0
2017-09-02T02:26:28.894Z,0
2017-09-02T02:27:28.607Z,0
2017-09-02T02:28:28.314Z,0
2017-09-02T02:29:28.381Z,0
2017-09-02T02:30:28.352Z,0
2017-09-02T02:31:28.376Z,0
2017-09-02T02:32:28.404Z,0
2017-09-02T02:33:28.423Z,0
2017-09-02T02:34:28.458Z,0
2017-09-02T02:35:28.465Z,0
2017-09-02T02:36:28.475Z,0
2017-09-02T02:37:28.497Z,0
2017-09-02T02:38:28.519Z,0
2017-09-02T02:39:28.557Z,0
2017-09-02T02:40:28.584Z,0
2017-09-02T02:41:28.593Z,0
2017-09-02T02:42:28.606Z,0
2017-09-02T02:43:28.627Z,0
2017-09-02T02:44:28.647Z,0
2017-09-02T02:45:28.671Z,0
2017-09-02T02:46:29.015Z,0
2017-09-02T02:47:28.761Z,0
2017-09-02T02:48:28.738Z,0
2017-09-02T02:49:28.754Z,0
2017-09-02T02:50:28.772Z,0
2017-09-02T02:51:28.799Z,0
2017-09-02T02:52:28.818Z,0
2017-09-02T02:53:28.838Z,0
2017-09-02T02:54:28.855Z,0
2017-09-02T02:55:28.891Z,0
2017-09-02T02:56:29.224Z,0
2017-09-02T02:57:28.921Z,0
2017-09-02T02:58:28.995Z,0
2017-09-02T02:59:28.982Z,0
2017-09-02T03:00:29.291Z,0
2017-09-02T03:01:29.002Z,0
2017-09-02T03:02:29.021Z,0
2017-09-02T03:03:29.096Z,0
2017-09-02T03:04:29.063Z,0
2017-09-02T03:05:29.097Z,0
2017-09-02T03:06:29.112Z,0
2017-09-02T03:07:29.126Z,0
2017-09-02T03:08:29.155Z,0
2017-09-02T03:09:29.171Z,0
2017-09-02T03:10:29.191Z,0
2017-09-02T03:11:29.214Z,0
2017-09-02T03:12:29.245Z,0
2017-09-02T03:13:29.258Z,0
2017-09-02T03:14:29.282Z,0
2017-09-02T03:15:29.300Z,0
2017-09-02T03:16:29.622Z,0
2017-09-02T03:17:29.667Z,0
2017-09-02T03:18:29.371Z,0
2017-09-02T03:19:29.370Z,0
2017-09-02T03:20:29.397Z,0
2017-09-02T03:21:29.427Z,0
2017-09-02T03:22:29.433Z,0
2017-09-02T03:23:29.462Z,0
2017-09-02T03:24:29.486Z,0
2017-09-02T03:25:29.496Z,0
2017-09-02T03:26:29.526Z,0
2017-09-02T03:27:29.549Z,0
2017-09-02T03:28:29.892Z,0
2017-09-02T03:29:29.583Z,0
2017-09-02T03:30:29.606Z,0
2017-09-02T03:31:29.627Z,0
2017-09-02T03:32:29.657Z,0
2017-09-02T03:33:29.976Z,0
2017-09-02T03:34:29.697Z,0
2017-09-02T03:35:29.706Z,0
2017-09-02T03:36:29.734Z,0
2017-09-02T03:37:29.806Z,0
2017-09-02T03:38:29.774Z,0
2017-09-02T03:39:30.103Z,0
2017-09-02T03:40:29.843Z,0
2017-09-02T03:41:29.829Z,0
2017-09-02T03:42:29.858Z,0
2017-09-02T03:43:29.875Z,0
2017-09-02T03:44:29.896Z,0
2017-09-02T03:45:29.913Z,0
2017-09-02T03:46:29.938Z,0
2017-09-02T03:47:29.956Z,0
2017-09-02T03:48:29.973Z,0
2017-09-02T03:49:30.001Z,0
2017-09-02T03:50:30.034Z,0
2017-09-02T03:51:30.369Z,0
2017-09-02T03:52:30.062Z,0
2017-09-02T03:53:30.088Z,0
2017-09-02T03:54:30.113Z,0
2017-09-02T03:55:30.127Z,0
2017-09-02T03:56:30.235Z,0
2017-09-02T03:57:30.161Z,0
2017-09-02T03:58:30.182Z,0
2017-09-02T03:59:30.657Z,0
2017-09-02T04:00:30.240Z,0
2017-09-02T04:01:30.246Z,0
2017-09-02T04:02:30.272Z,0
2017-09-02T04:03:30.597Z,0
2017-09-02T04:04:30.306Z,0
2017-09-02T04:05:30.326Z,0
2017-09-02T04:06:30.349Z,0
2017-09-02T04:07:30.368Z,0
2017-09-02T04:08:30.383Z,0
2017-09-02T04:09:30.406Z,0
2017-09-02T04:10:30.429Z,0
2017-09-02T04:11:30.608Z,0
2017-09-02T04:12:30.488Z,0
2017-09-02T04:13:30.488Z,0
2017-09-02T04:14:30.508Z,0
2017-09-02T04:15:30.529Z,0
2017-09-02T04:16:30.557Z,0
2017-09-02T04:17:30.586Z,0
2017-09-02T04:18:30.595Z,0
2017-09-02T04:19:30.632Z,0
2017-09-02T04:20:30.945Z,0
2017-09-02T04:21:30.659Z,0
2017-09-02T04:22:30.676Z,0
2017-09-02T04:23:30.696Z,4
2017-09-02T04:24:30.725Z,4
2017-09-02T04:25:30.760Z,4
2017-09-02T04:26:30.765Z,0
2017-09-02T04:27:31.147Z,4
2017-09-02T04:28:30.824Z,4
2017-09-02T04:29:30.820Z,4
2017-09-02T04:30:30.850Z,4
2017-09-02T04:31:30.862Z,8
2017-09-02T04:32:30.881Z,8
2017-09-02T04:33:30.918Z,8
2017-09-02T04:34:31.235Z,8
2017-09-02T04:35:30.944Z,12
2017-09-02T04:36:30.962Z,8
2017-09-02T04:37:30.983Z,12
2017-09-02T04:38:31.009Z,12
2017-09-02T04:39:31.021Z,12
2017-09-02T04:40:31.044Z,12
2017-09-02T04:41:31.383Z,12
2017-09-02T04:42:31.401Z,20
2017-09-02T04:43:31.121Z,20
2017-09-02T04:44:31.493Z,20
2017-09-02T04:45:31.462Z,28
2017-09-02T04:46:31.476Z,32
2017-09-02T04:47:31.195Z,40
2017-09-02T04:48:31.225Z,40
2017-09-02T04:49:31.233Z,44
2017-09-02T04:50:31.619Z,60
2017-09-02T04:51:31.268Z,72
2017-09-02T04:52:31.291Z,72
2017-09-02T04:53:31.310Z,72
2017-09-02T04:54:31.341Z,84
2017-09-02T04:55:31.359Z,88
2017-09-02T04:56:32.023Z,108
2017-09-02T04:57:31.393Z,124
2017-09-02T04:58:31.412Z,128
2017-09-02T04:59:31.745Z,128
2017-09-02T05:00:31.454Z,128
2017-09-02T05:01:31.481Z,132
2017-09-02T05:02:31.494Z,140
2017-09-02T05:03:31.516Z,136
2017-09-02T05:04:31.550Z,128
2017-09-02T05:05:31.565Z,128
2017-09-02T05:06:31.582Z,148
2017-09-02T05:07:31.610Z,160
2017-09-02T05:08:31.626Z,184
2017-09-02T05:09:31.648Z,196
2017-09-02T05:10:31.661Z,188
2017-09-02T05:11:31.695Z,192
2017-09-02T05:12:31.736Z,188
2017-09-02T05:13:31.732Z,184
2017-09-02T05:14:31.753Z,204
2017-09-02T05:15:31.766Z,208
2017-09-02T05:16:31.786Z,192
2017-09-02T05:17:31.816Z,180
2017-09-02T05:18:32.140Z,192
2017-09-02T05:19:31.847Z,212
2017-09-02T05:20:31.874Z,236
2017-09-02T05:21:32.245Z,260
2017-09-02T05:22:31.907Z,268
2017-09-02T05:23:31.936Z,292
2017-09-02T05:24:31.947Z,324
2017-09-02T05:25:31.971Z,340
2017-09-02T05:26:31.989Z,336
2017-09-02T05:27:32.042Z,344
2017-09-02T05:28:32.344Z,332
2017-09-02T05:29:32.051Z,360
2017-09-02T05:30:32.078Z,360
2017-09-02T05:31:32.101Z,380
2017-09-02T05:32:32.117Z,428
2017-09-02T05:33:32.141Z,436
2017-09-02T05:34:32.164Z,432
2017-09-02T05:35:32.178Z,428
2017-09-02T05:36:32.202Z,460
2017-09-02T05:37:32.219Z,460
2017-09-02T05:38:32.233Z,388
2017-09-02T05:39:32.306Z,396
2017-09-02T05:40:32.282Z,420
2017-09-02T05:41:32.305Z,464
2017-09-02T05:42:32.318Z,460
2017-09-02T05:43:32.344Z,400
2017-09-02T05:44:32.673Z,368
2017-09-02T05:45:32.404Z,408
2017-09-02T05:46:32.396Z,456
2017-09-02T05:47:32.418Z,464
2017-09-02T05:48:32.437Z,500
2017-09-02T05:49:32.481Z,484
2017-09-02T05:50:32.487Z,564
2017-09-02T05:51:32.814Z,576
2017-09-02T05:52:32.520Z,612
2017-09-02T05:53:32.868Z,636
2017-09-02T05:54:32.566Z,636
2017-09-02T05:55:32.579Z,592
2017-09-02T05:56:32.964Z,596
2017-09-02T05:57:32.620Z,604
2017-09-02T05:58:32.953Z,616
2017-09-02T05:59:32.682Z,680
2017-09-02T06:00:32.687Z,672
2017-09-02T06:01:32.708Z,672
2017-09-02T06:02:32.728Z,728
2017-09-02T06:03:32.746Z,684
2017-09-02T06:04:32.770Z,676
2017-09-02T06:05:33.100Z,728
2017-09-02T06:06:32.810Z,740
2017-09-02T06:07:32.824Z,744
2017-09-02T06:08:32.853Z,740
2017-09-02T06:09:33.203Z,748
2017-09-02T06:10:32.887Z,640
2017-09-02T06:11:32.955Z,632
2017-09-02T06:12:32.923Z,748
2017-09-02T06:13:32.948Z,696
2017-09-02T06:14:32.967Z,612
2017-09-02T06:15:32.990Z,604
2017-09-02T06:16:33.012Z,668
2017-09-02T06:17:33.029Z,608
2017-09-02T06:18:33.045Z,600
2017-09-02T06:19:33.069Z,564
2017-09-02T06:20:33.097Z,580
2017-09-02T06:21:33.425Z,560
2017-09-02T06:22:33.439Z,540
2017-09-02T06:23:33.469Z,556
2017-09-02T06:24:33.176Z,552
2017-09-02T06:25:33.496Z,584
2017-09-02T06:26:33.207Z,548
2017-09-02T06:27:33.225Z,508
2017-09-02T06:28:33.254Z,616
2017-09-02T06:29:33.323Z,676
2017-09-02T06:30:33.307Z,564
2017-09-02T06:31:33.316Z,452
2017-09-02T06:32:33.331Z,476
2017-09-02T06:33:33.360Z,552
2017-09-02T06:34:33.384Z,540
2017-09-02T06:35:33.406Z,560
2017-09-02T06:36:33.733Z,724
2017-09-02T06:37:33.443Z,1068
2017-09-02T06:38:33.765Z,1528
2017-09-02T06:39:33.474Z,1748
2017-09-02T06:40:33.498Z,1824
2017-09-02T06:41:33.524Z,1980
2017-09-02T06:42:33.566Z,2032
2017-09-02T06:43:33.562Z,2084
2017-09-02T06:44:33.838Z,2112
2017-09-02T06:45:33.597Z,2136
2017-09-02T06:46:33.616Z,2200
2017-09-02T06:47:33.644Z,2280
2017-09-02T06:48:33.973Z,2364
2017-09-02T06:49:33.676Z,2388
2017-09-02T06:50:33.698Z,2316
2017-09-02T06:51:33.728Z,2232
2017-09-02T06:52:34.052Z,2128
2017-09-02T06:53:33.763Z,2052
2017-09-02T06:54:33.791Z,2280
2017-09-02T06:55:33.803Z,2356
2017-09-02T06:56:33.820Z,2376
2017-09-02T06:57:33.844Z,2372
2017-09-02T06:58:33.880Z,2460
2017-09-02T06:59:34.209Z,2452
2017-09-02T07:00:33.900Z,2512
2017-09-02T07:01:34.239Z,2632
2017-09-02T07:02:33.956Z,2696
2017-09-02T07:03:33.967Z,2756
2017-09-02T07:04:33.999Z,2712
2017-09-02T07:05:34.329Z,2600
2017-09-02T07:06:34.029Z,2608
2017-09-02T07:07:34.066Z,2600
2017-09-02T07:08:34.417Z,2500
2017-09-02T07:09:34.446Z,2456
2017-09-02T07:10:34.122Z,2388
2017-09-02T07:11:34.466Z,2384
2017-09-02T07:12:34.151Z,2384
2017-09-02T07:13:34.184Z,2300
2017-09-02T07:14:34.211Z,2116
2017-09-02T07:15:34.224Z,2092
2017-09-02T07:16:34.240Z,2136
2017-09-02T07:17:34.310Z,2288
2017-09-02T07:18:34.282Z,2396
2017-09-02T07:19:34.307Z,2424
2017-09-02T07:20:34.350Z,2376
2017-09-02T07:21:34.343Z,2288
2017-09-02T07:22:34.367Z,2244
2017-09-02T07:23:34.392Z,2320
2017-09-02T07:24:34.418Z,2464
2017-09-02T07:25:34.435Z,2528
2017-09-02T07:26:34.447Z,2540
2017-09-02T07:27:34.475Z,2604
2017-09-02T07:28:34.488Z,2692
2017-09-02T07:29:34.509Z,2756
2017-09-02T07:30:34.544Z,2764
2017-09-02T07:31:34.555Z,2788
2017-09-02T07:32:34.582Z,2880
2017-09-02T07:33:34.602Z,2928
2017-09-02T07:34:34.617Z,2964
2017-09-02T07:35:34.949Z,2996
2017-09-02T07:36:34.716Z,2924
2017-09-02T07:37:34.677Z,2732
2017-09-02T07:38:34.702Z,2544
2017-09-02T07:39:34.720Z,2432
2017-09-02T07:40:34.750Z,2340
2017-09-02T07:41:34.763Z,2348
2017-09-02T07:42:35.116Z,2372
2017-09-02T07:43:35.129Z,2312
2017-09-02T07:44:35.141Z,2200
2017-09-02T07:45:34.850Z,2176
2017-09-02T07:46:35.183Z,2308
2017-09-02T07:47:34.883Z,2460
2017-09-02T07:48:34.924Z,2572
2017-09-02T07:49:34.937Z,2644
2017-09-02T07:50:34.959Z,2692
2017-09-02T07:51:35.556Z,2464
2017-09-02T07:52:34.996Z,2104
2017-09-02T07:53:35.328Z,2088
2017-09-02T07:54:35.034Z,2236
2017-09-02T07:55:35.056Z,2412
2017-09-02T07:56:35.077Z,2252
2017-09-02T07:57:35.108Z,2152
2017-09-02T07:58:35.448Z,2184
2017-09-02T07:59:35.142Z,2288
2017-09-02T08:00:35.167Z,2524
2017-09-02T08:01:35.191Z,2452
2017-09-02T08:02:35.204Z,2316
2017-09-02T08:03:35.233Z,2152
2017-09-02T08:04:35.247Z,2020
2017-09-02T08:05:35.266Z,2056
2017-09-02T08:06:35.281Z,2292
2017-09-02T08:07:35.620Z,2672
2017-09-02T08:08:35.339Z,3036
2017-09-02T08:09:35.358Z,3368
2017-09-02T08:10:35.424Z,3500
2017-09-02T08:11:35.394Z,3500
2017-09-02T08:12:35.424Z,3512
2017-09-02T08:13:35.440Z,3340
2017-09-02T08:14:35.458Z,2988
2017-09-02T08:15:35.496Z,2836
2017-09-02T08:16:35.498Z,2948
2017-09-02T08:17:35.524Z,3104
2017-09-02T08:18:35.543Z,3212
2017-09-02T08:19:35.574Z,3268
2017-09-02T08:20:35.587Z,3292
2017-09-02T08:21:35.610Z,3340
2017-09-02T08:22:35.636Z,3344
2017-09-02T08:23:35.660Z,3352
2017-09-02T08:24:35.674Z,3108
2017-09-02T08:25:35.691Z,2776
2017-09-02T08:26:35.721Z,2428
2017-09-02T08:27:35.734Z,2264
2017-09-02T08:28:35.748Z,2612
2017-09-02T08:29:36.147Z,3040
2017-09-02T08:30:36.121Z,3172
2017-09-02T08:31:35.835Z,3028
2017-09-02T08:32:35.836Z,2956
2017-09-02T08:33:36.180Z,3404
2017-09-02T08:34:35.970Z,3820
2017-09-02T08:35:38.896Z,4008
2017-09-02T08:36:35.987Z,4080
2017-09-02T08:37:35.966Z,4136
2017-09-02T08:38:37.678Z,2708
2017-09-02T08:39:35.984Z,2508
2017-09-02T08:40:36.647Z,2424
2017-09-02T08:41:36.077Z,2440
2017-09-02T08:42:36.048Z,2556
2017-09-02T08:43:36.075Z,2468
2017-09-02T08:44:36.405Z,2484
2017-09-02T08:45:36.500Z,2676
2017-09-02T08:46:36.135Z,2956
2017-09-02T08:47:36.163Z,3140
2017-09-02T08:48:36.491Z,3196
2017-09-02T08:49:36.202Z,3268
2017-09-02T08:50:36.220Z,3372
2017-09-02T08:51:36.241Z,3372
2017-09-02T08:52:36.253Z,3232
2017-09-02T08:53:36.293Z,3064
2017-09-02T08:54:36.305Z,3020
2017-09-02T08:55:36.640Z,3032
2017-09-02T08:56:36.344Z,3068
2017-09-02T08:57:36.366Z,3128
2017-09-02T08:58:36.386Z,3136
2017-09-02T08:59:37.174Z,3164
2017-09-02T09:00:36.746Z,3284
2017-09-02T09:01:40.647Z,3500
2017-09-02T09:02:38.042Z,3692
2017-09-02T09:03:36.526Z,3840
2017-09-02T09:04:36.548Z,4048
2017-09-02T09:05:36.640Z,4296
2017-09-02T09:06:36.970Z,4496
2017-09-02T09:07:36.669Z,4496
2017-09-02T09:08:36.734Z,4168
2017-09-02T09:09:38.563Z,3964
2017-09-02T09:10:36.721Z,3768
2017-09-02T09:11:36.694Z,3388
2017-09-02T09:12:36.929Z,2944
2017-09-02T09:13:36.724Z,3708
2017-09-02T09:14:36.753Z,3312
2017-09-02T09:15:36.882Z,2824
2017-09-02T09:16:36.917Z,2644
2017-09-02T09:17:37.248Z,2632
2017-09-02T09:18:36.840Z,2624
2017-09-02T09:19:37.182Z,3148
2017-09-02T09:20:36.925Z,4116
2017-09-02T09:21:37.258Z,5268
2017-09-02T09:22:36.899Z,6572
2017-09-02T09:23:36.920Z,7396
2017-09-02T09:24:36.942Z,7944
2017-09-02T09:25:36.962Z,8688
2017-09-02T09:26:36.978Z,9116
2017-09-02T09:27:37.330Z,9244
2017-09-02T09:28:37.343Z,9248
2017-09-02T09:29:37.058Z,9268
2017-09-02T09:30:37.387Z,9200
2017-09-02T09:31:37.405Z,9072
2017-09-02T09:32:37.126Z,8980
2017-09-02T09:33:37.451Z,8956
2017-09-02T09:34:37.157Z,9024
2017-09-02T09:35:37.479Z,9156
2017-09-02T09:36:37.258Z,9320
2017-09-02T09:37:37.540Z,9416
2017-09-02T09:38:37.259Z,9580
2017-09-02T09:39:37.263Z,9860
2017-09-02T09:40:37.614Z,10164
2017-09-02T09:41:37.310Z,10360
2017-09-02T09:42:37.650Z,10476
2017-09-02T09:43:37.359Z,10536
2017-09-02T09:44:37.387Z,10560
2017-09-02T09:45:37.408Z,10564
2017-09-02T09:46:37.424Z,10632
2017-09-02T09:47:37.451Z,10704
2017-09-02T09:48:37.467Z,10908
2017-09-02T09:49:37.821Z,11384
2017-09-02T09:50:37.525Z,11932
2017-09-02T09:51:37.532Z,12412
2017-09-02T09:52:37.558Z,13076
2017-09-02T09:53:37.896Z,13748
2017-09-02T09:54:37.610Z,14288
2017-09-02T09:55:37.641Z,14720
2017-09-02T09:56:37.651Z,14960
2017-09-02T09:57:37.672Z,14804
2017-09-02T09:58:37.697Z,14192
2017-09-02T09:59:37.725Z,14556
2017-09-02T10:00:37.745Z,14948
2017-09-02T10:01:38.088Z,14088
2017-09-02T10:02:37.812Z,13732
2017-09-02T10:03:37.850Z,12968
2017-09-02T10:04:37.848Z,12288
2017-09-02T10:05:37.860Z,12036
2017-09-02T10:06:37.897Z,12176
2017-09-02T10:07:37.921Z,12632
2017-09-02T10:08:37.950Z,13032
2017-09-02T10:09:38.617Z,13668
2017-09-02T10:10:38.027Z,14924
2017-09-02T10:11:38.016Z,18176
2017-09-02T10:12:38.342Z,18080
2017-09-02T10:13:38.059Z,19392
2017-09-02T10:14:38.070Z,18592
2017-09-02T10:15:38.114Z,18080
2017-09-02T10:16:38.128Z,17568
2017-09-02T10:17:38.468Z,16928
2017-09-02T10:18:38.173Z,15772
2017-09-02T10:19:38.208Z,14200
2017-09-02T10:20:38.230Z,12504
2017-09-02T10:21:38.256Z,11088
2017-09-02T10:22:38.274Z,10228
2017-09-02T10:23:38.299Z,9872
2017-09-02T10:24:38.641Z,9404
2017-09-02T10:25:38.341Z,8412
2017-09-02T10:26:38.421Z,7252
2017-09-02T10:27:38.397Z,6472
2017-09-02T10:28:38.426Z,6096
2017-09-02T10:29:38.453Z,6288
2017-09-02T10:30:38.775Z,6708
2017-09-02T10:31:38.507Z,6896
2017-09-02T10:32:38.833Z,7204
2017-09-02T10:33:38.542Z,7232
2017-09-02T10:34:38.577Z,7152
2017-09-02T10:35:38.593Z,7160
2017-09-02T10:36:38.933Z,7424
2017-09-02T10:37:38.640Z,8136
2017-09-02T10:38:38.682Z,9024
2017-09-02T10:39:38.684Z,9476
2017-09-02T10:40:38.726Z,9884
2017-09-02T10:41:38.746Z,10172
2017-09-02T10:42:38.787Z,10716
2017-09-02T10:43:38.785Z,11204
2017-09-02T10:44:39.112Z,11380
2017-09-02T10:45:38.842Z,11320
2017-09-02T10:46:38.859Z,11092
2017-09-02T10:47:38.889Z,10780
2017-09-02T10:48:38.923Z,10596
2017-09-02T10:49:38.958Z,10648
2017-09-02T10:50:39.279Z,10752
2017-09-02T10:51:38.986Z,10956
2017-09-02T10:52:39.009Z,11396
2017-09-02T10:53:39.033Z,11916
2017-09-02T10:54:39.055Z,12368
2017-09-02T10:55:39.408Z,12792
2017-09-02T10:56:39.107Z,13180
2017-09-02T10:57:39.130Z,13776
2017-09-02T10:58:39.467Z,14532
2017-09-02T10:59:39.177Z,15176
2017-09-02T11:00:39.570Z,15384
2017-09-02T11:01:39.223Z,15068
2017-09-02T11:02:39.248Z,14700
2017-09-02T11:03:39.273Z,14260
2017-09-02T11:04:39.302Z,14012
2017-09-02T11:05:39.318Z,13852
2017-09-02T11:06:39.346Z,13800
2017-09-02T11:07:39.369Z,13864
2017-09-02T11:08:40.027Z,14016
2017-09-02T11:09:39.426Z,13988
2017-09-02T11:10:39.454Z,13632
2017-09-02T11:11:39.483Z,13036
2017-09-02T11:12:39.499Z,12312
2017-09-02T11:13:39.519Z,11736
2017-09-02T11:14:39.560Z,11496
2017-09-02T11:15:39.579Z,11524
2017-09-02T11:16:39.605Z,11456
2017-09-02T11:17:39.629Z,11232
2017-09-02T11:18:39.662Z,10972
2017-09-02T11:19:39.735Z,10856
2017-09-02T11:20:39.699Z,10700
2017-09-02T11:21:39.727Z,10456
2017-09-02T11:22:39.757Z,10120
2017-09-02T11:23:39.771Z,10028
2017-09-02T11:24:39.801Z,10152
2017-09-02T11:25:39.824Z,10320
2017-09-02T11:26:39.853Z,10404
2017-09-02T11:27:40.512Z,10476
2017-09-02T11:28:39.900Z,10264
2017-09-02T11:29:39.947Z,9668
2017-09-02T11:30:39.954Z,9004
2017-09-02T11:31:39.971Z,8436
2017-09-02T11:32:40.006Z,8192
2017-09-02T11:33:40.029Z,7948
2017-09-02T11:34:40.058Z,7696
2017-09-02T11:35:40.072Z,7388
2017-09-02T11:36:40.429Z,7280
2017-09-02T11:37:40.491Z,7524
2017-09-02T11:38:40.498Z,7932
2017-09-02T11:39:40.178Z,8356
2017-09-02T11:40:40.199Z,8580
2017-09-02T11:41:40.226Z,8736
2017-09-02T11:42:40.249Z,8868
2017-09-02T11:43:40.290Z,9000
2017-09-02T11:44:40.298Z,9032
2017-09-02T11:45:40.335Z,9024
2017-09-02T11:46:40.657Z,9076
2017-09-02T11:47:40.377Z,8992
2017-09-02T11:48:40.394Z,8952
2017-09-02T11:49:40.419Z,9044
2017-09-02T11:50:40.452Z,9280
2017-09-02T11:51:40.483Z,9572
2017-09-02T11:52:40.559Z,9840
2017-09-02T11:53:40.512Z,10100
2017-09-02T11:54:40.544Z,10416
2017-09-02T11:55:40.561Z,10816
2017-09-02T11:56:40.592Z,11224
2017-09-02T11:57:40.929Z,11504
2017-09-02T11:58:40.641Z,11628
2017-09-02T11:59:40.988Z,11584
2017-09-02T12:00:40.692Z,11520
2017-09-02T12:01:40.711Z,11508
2017-09-02T12:02:40.741Z,11588
2017-09-02T12:03:41.065Z,11692
2017-09-02T12:04:40.791Z,11784
2017-09-02T12:05:40.808Z,11824
2017-09-02T12:06:40.842Z,11784
2017-09-02T12:07:41.181Z,11772
2017-09-02T12:08:40.888Z,11672
2017-09-02T12:09:40.904Z,11524
2017-09-02T12:10:40.937Z,11384
2017-09-02T12:11:41.014Z,11304
2017-09-02T12:12:40.989Z,11212
2017-09-02T12:13:41.015Z,11192
2017-09-02T12:14:41.029Z,11160
2017-09-02T12:15:41.065Z,11068
2017-09-02T12:16:41.102Z,10964
2017-09-02T12:17:41.104Z,10876
2017-09-02T12:18:41.140Z,10704
2017-09-02T12:19:41.162Z,10552
2017-09-02T12:20:41.192Z,10396
2017-09-02T12:21:41.214Z,10252
2017-09-02T12:22:41.250Z,10104
2017-09-02T12:23:41.568Z,10044
2017-09-02T12:24:41.284Z,10000
2017-09-02T12:25:41.627Z,9872
2017-09-02T12:26:41.336Z,9740
2017-09-02T12:27:41.358Z,9708
2017-09-02T12:28:41.433Z,9788
2017-09-02T12:29:41.421Z,9800
2017-09-02T12:30:41.447Z,9728
2017-09-02T12:31:41.462Z,9620
2017-09-02T12:32:41.495Z,9488
2017-09-02T12:33:41.510Z,9380
2017-09-02T12:34:41.537Z,9272
2017-09-02T12:35:41.567Z,9140
2017-09-02T12:36:41.912Z,8948
2017-09-02T12:37:41.628Z,8648
2017-09-02T12:38:41.634Z,8228
2017-09-02T12:39:41.662Z,7864
2017-09-02T12:40:41.698Z,7668
2017-09-02T12:41:42.501Z,7572
2017-09-02T12:42:41.736Z,7764
2017-09-02T12:43:41.805Z,8000
2017-09-02T12:44:41.779Z,8140
2017-09-02T12:45:41.812Z,8380
2017-09-02T12:46:41.834Z,8652
2017-09-02T12:47:41.862Z,8832
2017-09-02T12:48:42.290Z,8904
2017-09-02T12:49:41.913Z,8932
2017-09-02T12:50:42.256Z,9064
2017-09-02T12:51:42.271Z,9328
2017-09-02T12:52:42.298Z,9548
2017-09-02T12:53:42.005Z,9648
2017-09-02T12:54:42.037Z,9628
2017-09-02T12:55:42.086Z,9524
2017-09-02T12:56:42.722Z,9392
2017-09-02T12:57:42.110Z,9244
2017-09-02T12:58:42.144Z,9016
2017-09-02T12:59:42.471Z,8768
2017-09-02T13:00:42.183Z,8436
2017-09-02T13:01:42.521Z,8124
2017-09-02T13:02:42.232Z,8004
2017-09-02T13:03:42.579Z,8064
2017-09-02T13:04:42.277Z,8104
2017-09-02T13:05:42.307Z,8036
2017-09-02T13:06:42.331Z,7652
2017-09-02T13:07:42.972Z,7112
2017-09-02T13:08:42.378Z,6576
2017-09-02T13:09:42.405Z,6428
2017-09-02T13:10:42.428Z,6604
2017-09-02T13:11:42.482Z,6768
2017-09-02T13:12:42.499Z,6916
2017-09-02T13:13:42.818Z,7124
2017-09-02T13:14:42.526Z,7456
2017-09-02T13:15:42.858Z,7668
2017-09-02T13:16:42.570Z,7732
2017-09-02T13:17:42.716Z,7684
2017-09-02T13:18:42.645Z,7692
2017-09-02T13:19:42.651Z,7692
2017-09-02T13:20:42.671Z,7688
2017-09-02T13:21:42.692Z,7564
2017-09-02T13:22:42.727Z,7364
2017-09-02T13:23:43.934Z,7264
2017-09-02T13:24:44.055Z,7324
2017-09-02T13:25:42.802Z,7396
2017-09-02T13:26:42.820Z,7448
2017-09-02T13:27:42.845Z,7540
2017-09-02T13:28:43.188Z,7544
2017-09-02T13:29:42.898Z,7452
2017-09-02T13:30:42.918Z,7340
2017-09-02T13:31:42.943Z,7188
2017-09-02T13:32:43.012Z,6948
2017-09-02T13:33:42.998Z,6636
2017-09-02T13:34:43.327Z,6544
2017-09-02T13:35:43.037Z,6564
2017-09-02T13:36:43.063Z,6612
2017-09-02T13:37:43.394Z,6468
2017-09-02T13:38:43.113Z,6080
2017-09-02T13:39:43.145Z,5720
2017-09-02T13:40:43.162Z,5404
2017-09-02T13:41:43.190Z,5076
2017-09-02T13:42:43.216Z,4912
2017-09-02T13:43:43.245Z,4968
2017-09-02T13:44:43.582Z,4856
2017-09-02T13:45:43.296Z,4644
2017-09-02T13:46:43.315Z,4544